createdAt,value
2018-07-02T00:00:04.726Z,1.609344
2018-07-02T00:00:17.515Z,3.218688
2018-07-02T00:00:30.359Z,9.656064
2018-07-02T00:00:43.144Z,9.656064
2018-07-02T00:00:55.904Z,9.656064
2018-07-02T00:01:09.565Z,8.04672
2018-07-02T00:01:24.433Z,9.656064
2018-07-02T00:01:37.132Z,9.656064
2018-07-02T00:01:49.906Z,11.265408
2018-07-02T00:02:02.633Z,11.265408
2018-07-02T00:02:15.385Z,3.218688
2018-07-02T00:02:30.834Z,8.04672
2018-07-02T00:02:44.447Z,9.656064
2018-07-02T00:02:57.257Z,9.656064
2018-07-02T00:03:10.039Z,4.828032
2018-07-02T00:03:22.733Z,8.04672
2018-07-02T00:03:35.515Z,8.04672
2018-07-02T00:03:49.611Z,9.656064
2018-07-02T00:04:03.397Z,9.656064
2018-07-02T00:04:16.223Z,6.437376
2018-07-02T00:04:28.991Z,6.437376
2018-07-02T00:04:41.737Z,6.437376
2018-07-02T00:04:54.433Z,6.437376
2018-07-02T00:05:10.128Z,3.218688
2018-07-02T00:05:24.007Z,3.218688
2018-07-02T00:05:36.738Z,3.218688
2018-07-02T00:05:49.430Z,3.218688
2018-07-02T00:06:02.203Z,3.218688
2018-07-02T00:06:14.984Z,1.609344
2018-07-02T00:06:29.398Z,3.218688
2018-07-02T00:06:43.070Z,6.437376
2018-07-02T00:06:56.921Z,9.656064
2018-07-02T00:07:09.792Z,8.04672
2018-07-02T00:07:22.473Z,8.04672
2018-07-02T00:07:36.468Z,8.04672
2018-07-02T00:07:51.447Z,8.04672
2018-07-02T00:08:04.356Z,4.828032
2018-07-02T00:08:17.162Z,4.828032
2018-07-02T00:08:30.102Z,4.828032
2018-07-02T00:08:42.759Z,4.828032
2018-07-02T00:08:55.473Z,8.04672
2018-07-02T00:09:11.223Z,8.04672
2018-07-02T00:09:24.031Z,9.656064
2018-07-02T00:09:36.745Z,11.265408
2018-07-02T00:09:49.497Z,11.265408
2018-07-02T00:10:02.331Z,11.265408
2018-07-02T00:10:15.372Z,3.218688
2018-07-02T00:10:31.479Z,8.04672
2018-07-02T00:10:44.207Z,9.656064
2018-07-02T00:10:56.986Z,9.656064
2018-07-02T00:11:09.709Z,6.437376
2018-07-02T00:11:22.453Z,6.437376
2018-07-02T00:11:36.137Z,6.437376
2018-07-02T00:11:50.742Z,8.04672
2018-07-02T00:12:03.504Z,8.04672
2018-07-02T00:12:16.261Z,9.656064
2018-07-02T00:12:29.050Z,9.656064
2018-07-02T00:12:41.932Z,9.656064
2018-07-02T00:12:56.525Z,9.656064
2018-07-02T00:13:10.317Z,3.218688
2018-07-02T00:13:23.093Z,3.218688
2018-07-02T00:13:35.860Z,3.218688
2018-07-02T00:13:48.544Z,6.437376
2018-07-02T00:14:01.246Z,6.437376
2018-07-02T00:14:15.684Z,3.218688
2018-07-02T00:14:30.169Z,3.218688
2018-07-02T00:14:42.902Z,3.218688
2018-07-02T00:14:55.674Z,3.218688
2018-07-02T00:15:08.490Z,1.609344
2018-07-02T00:15:21.232Z,3.218688
2018-07-02T00:15:36.047Z,3.218688
2018-07-02T00:15:49.695Z,6.437376
2018-07-02T00:16:02.430Z,8.04672
2018-07-02T00:16:15.162Z,4.828032
2018-07-02T00:16:27.916Z,6.437376
2018-07-02T00:16:40.648Z,6.437376
2018-07-02T00:16:56.191Z,8.04672
2018-07-02T00:17:09.345Z,4.828032
2018-07-02T00:17:22.065Z,4.828032
2018-07-02T00:17:34.964Z,4.828032
2018-07-02T00:17:47.746Z,4.828032
2018-07-02T00:18:00.396Z,4.828032
2018-07-02T00:18:15.935Z,6.437376
2018-07-02T00:18:28.737Z,8.04672
2018-07-02T00:18:41.427Z,8.04672
2018-07-02T00:18:54.104Z,8.04672
2018-07-02T00:19:06.837Z,3.218688
2018-07-02T00:19:19.539Z,4.828032
2018-07-02T00:19:35.855Z,8.04672
2018-07-02T00:19:48.608Z,8.04672
2018-07-02T00:20:01.850Z,8.04672
2018-07-02T00:20:14.550Z,9.656064
2018-07-02T00:20:27.300Z,9.656064
2018-07-02T00:20:40.053Z,9.656064
2018-07-02T00:20:55.527Z,9.656064
2018-07-02T00:21:08.225Z,6.437376
2018-07-02T00:21:21.017Z,6.437376
2018-07-02T00:21:33.798Z,6.437376
2018-07-02T00:21:46.547Z,6.437376
2018-07-02T00:21:59.231Z,6.437376
2018-07-02T00:22:15.446Z,6.437376
2018-07-02T00:22:28.258Z,6.437376
2018-07-02T00:22:40.999Z,6.437376
2018-07-02T00:22:53.700Z,6.437376
2018-07-02T00:23:06.796Z,3.218688
2018-07-02T00:23:19.512Z,3.218688
2018-07-02T00:23:35.458Z,3.218688
2018-07-02T00:23:48.201Z,3.218688
2018-07-02T00:24:00.966Z,3.218688
2018-07-02T00:24:13.696Z,1.609344
2018-07-02T00:24:26.429Z,3.218688
2018-07-02T00:24:39.258Z,3.218688
2018-07-02T00:24:55.461Z,3.218688
2018-07-02T00:25:08.244Z,8.04672
2018-07-02T00:25:20.935Z,8.04672
2018-07-02T00:25:33.698Z,8.04672
2018-07-02T00:25:46.786Z,9.656064
2018-07-02T00:26:00.963Z,9.656064
2018-07-02T00:26:16.062Z,6.437376
2018-07-02T00:26:28.851Z,6.437376
2018-07-02T00:26:41.550Z,6.437376
2018-07-02T00:26:54.313Z,11.265408
2018-07-02T00:27:07.094Z,6.437376
2018-07-02T00:27:19.768Z,8.04672
2018-07-02T00:27:36.343Z,8.04672
2018-07-02T00:27:49.183Z,8.04672
2018-07-02T00:28:01.900Z,8.04672
2018-07-02T00:28:14.814Z,1.609344
2018-07-02T00:28:27.591Z,3.218688
2018-07-02T00:28:40.855Z,3.218688
2018-07-02T00:28:55.763Z,3.218688
2018-07-02T00:29:08.450Z,6.437376
2018-07-02T00:29:21.100Z,6.437376
2018-07-02T00:29:33.826Z,6.437376
2018-07-02T00:29:46.562Z,6.437376
2018-07-02T00:29:59.261Z,6.437376
2018-07-02T00:30:15.733Z,9.656064
2018-07-02T00:30:28.510Z,9.656064
2018-07-02T00:30:41.252Z,9.656064
2018-07-02T00:30:54.043Z,9.656064
2018-07-02T00:31:06.759Z,6.437376
2018-07-02T00:31:19.432Z,6.437376
2018-07-02T00:31:35.139Z,9.656064
2018-07-02T00:31:48.534Z,9.656064
2018-07-02T00:32:01.825Z,9.656064
2018-07-02T00:32:14.594Z,6.437376
2018-07-02T00:32:27.381Z,6.437376
2018-07-02T00:32:40.080Z,6.437376
2018-07-02T00:32:56.059Z,6.437376
2018-07-02T00:33:08.767Z,9.656064
2018-07-02T00:33:21.597Z,9.656064
2018-07-02T00:33:34.433Z,9.656064
2018-07-02T00:33:47.116Z,9.656064
2018-07-02T00:33:59.783Z,9.656064
2018-07-02T00:34:15.255Z,6.437376
2018-07-02T00:34:27.977Z,6.437376
2018-07-02T00:34:40.776Z,6.437376
2018-07-02T00:34:53.550Z,6.437376
2018-07-02T00:35:06.278Z,1.609344
2018-07-02T00:35:19.876Z,1.609344
2018-07-02T00:35:34.972Z,3.218688
2018-07-02T00:35:47.735Z,3.218688
2018-07-02T00:36:00.491Z,3.218688
2018-07-02T00:36:13.225Z,3.218688
2018-07-02T00:36:25.993Z,3.218688
2018-07-02T00:36:41.563Z,3.218688
2018-07-02T00:36:54.656Z,3.218688
2018-07-02T00:37:07.429Z,0
2018-07-02T00:37:20.187Z,1.609344
2018-07-02T00:37:32.964Z,1.609344
2018-07-02T00:37:45.694Z,1.609344
2018-07-02T00:37:58.445Z,1.609344
2018-07-02T00:38:11.275Z,1.609344
2018-07-02T00:38:26.705Z,1.609344
2018-07-02T00:38:39.360Z,1.609344
2018-07-02T00:38:54.591Z,1.609344
2018-07-02T00:39:07.400Z,3.218688
2018-07-02T00:39:20.168Z,3.218688
2018-07-02T00:39:32.994Z,3.218688
2018-07-02T00:39:45.822Z,4.828032
2018-07-02T00:39:58.789Z,4.828032
2018-07-02T00:40:11.606Z,3.218688
2018-07-02T00:40:25.687Z,6.437376
2018-07-02T00:40:40.968Z,8.04672
2018-07-02T00:40:53.705Z,8.04672
2018-07-02T00:41:06.996Z,3.218688
2018-07-02T00:41:19.613Z,3.218688
2018-07-02T00:41:35.530Z,4.828032
2018-07-02T00:41:49.239Z,8.04672
2018-07-02T00:42:02.025Z,8.04672
2018-07-02T00:42:14.774Z,3.218688
2018-07-02T00:42:27.549Z,3.218688
2018-07-02T00:42:41.220Z,3.218688
2018-07-02T00:42:56.167Z,3.218688
2018-07-02T00:43:08.986Z,1.609344
2018-07-02T00:43:23.604Z,3.218688
2018-07-02T00:43:36.403Z,6.437376
2018-07-02T00:43:49.598Z,6.437376
2018-07-02T00:44:02.653Z,6.437376
2018-07-02T00:44:15.412Z,3.218688
2018-07-02T00:44:28.639Z,3.218688
2018-07-02T00:44:41.307Z,3.218688
2018-07-02T00:44:53.955Z,3.218688
2018-07-02T00:45:09.954Z,6.437376
2018-07-02T00:45:22.905Z,6.437376
2018-07-02T00:45:35.805Z,6.437376
2018-07-02T00:45:48.742Z,6.437376
2018-07-02T00:46:01.459Z,6.437376
2018-07-02T00:46:14.204Z,3.218688
2018-07-02T00:46:27.108Z,3.218688
2018-07-02T00:46:39.748Z,3.218688
2018-07-02T00:46:52.377Z,3.218688
2018-07-02T00:47:08.651Z,6.437376
2018-07-02T00:47:25.561Z,6.437376
2018-07-02T00:47:38.723Z,8.04672
2018-07-02T00:47:51.438Z,8.04672
2018-07-02T00:48:04.138Z,3.218688
2018-07-02T00:48:16.892Z,3.218688
2018-07-02T00:48:29.609Z,3.218688
2018-07-02T00:48:42.685Z,3.218688
2018-07-02T00:48:57.555Z,4.828032
2018-07-02T00:49:13.515Z,6.437376
2018-07-02T00:49:26.628Z,6.437376
2018-07-02T00:49:39.417Z,6.437376
2018-07-02T00:49:52.201Z,6.437376
2018-07-02T00:50:05.003Z,8.04672
2018-07-02T00:50:17.732Z,8.04672
2018-07-02T00:50:32.541Z,8.04672
2018-07-02T00:50:47.907Z,8.04672
2018-07-02T00:51:00.586Z,8.04672
2018-07-02T00:51:13.313Z,1.609344
2018-07-02T00:51:26.304Z,6.437376
2018-07-02T00:51:39.008Z,6.437376
2018-07-02T00:51:52.247Z,6.437376
2018-07-02T00:52:09.009Z,1.609344
2018-07-02T00:52:21.757Z,1.609344
2018-07-02T00:52:34.488Z,1.609344
2018-07-02T00:52:47.246Z,1.609344
2018-07-02T00:52:59.935Z,1.609344
2018-07-02T00:53:14.303Z,0
2018-07-02T00:53:30.133Z,4.828032
2018-07-02T00:53:42.957Z,6.437376
2018-07-02T00:53:55.673Z,6.437376
2018-07-02T00:54:08.389Z,1.609344
2018-07-02T00:54:21.127Z,3.218688
2018-07-02T00:54:33.857Z,8.04672
2018-07-02T00:54:51.726Z,8.04672
2018-07-02T00:55:04.489Z,0
2018-07-02T00:55:17.246Z,0
2018-07-02T00:55:30.152Z,1.609344
2018-07-02T00:55:42.941Z,1.609344
2018-07-02T00:55:55.655Z,1.609344
2018-07-02T00:56:12.202Z,0
2018-07-02T00:56:25.661Z,0
2018-07-02T00:56:38.306Z,6.437376
2018-07-02T00:56:51.039Z,6.437376
2018-07-02T00:57:03.870Z,6.437376
2018-07-02T00:57:16.636Z,8.04672
2018-07-02T00:57:32.357Z,8.04672
2018-07-02T00:57:47.136Z,8.04672
2018-07-02T00:57:59.915Z,8.04672
2018-07-02T00:58:12.693Z,3.218688
2018-07-02T00:58:25.395Z,3.218688
2018-07-02T00:58:38.090Z,3.218688
2018-07-02T00:58:51.982Z,3.218688
2018-07-02T00:59:07.870Z,1.609344
2018-07-02T00:59:20.621Z,1.609344
2018-07-02T00:59:33.338Z,1.609344
2018-07-02T00:59:46.099Z,1.609344
2018-07-02T00:59:58.772Z,1.609344
2018-07-02T01:00:11.420Z,0
2018-07-02T01:00:28.185Z,1.609344
2018-07-02T01:00:41.684Z,1.609344
2018-07-02T01:00:54.421Z,1.609344
2018-07-02T01:01:07.286Z,1.609344
2018-07-02T01:01:20.022Z,1.609344
2018-07-02T01:01:33.031Z,1.609344
2018-07-02T01:01:48.710Z,8.04672
2018-07-02T01:02:03.058Z,8.04672
2018-07-02T01:02:15.812Z,6.437376
2018-07-02T01:02:28.564Z,6.437376
2018-07-02T01:02:41.260Z,6.437376
2018-07-02T01:02:54.003Z,6.437376
2018-07-02T01:03:07.513Z,0
2018-07-02T01:03:23.752Z,1.609344
2018-07-02T01:03:36.455Z,1.609344
2018-07-02T01:03:49.226Z,3.218688
2018-07-02T01:04:02.001Z,3.218688
2018-07-02T01:04:14.926Z,3.218688
2018-07-02T01:04:27.605Z,3.218688
2018-07-02T01:04:44.125Z,3.218688
2018-07-02T01:04:57.258Z,3.218688
2018-07-02T01:05:10.126Z,1.609344
2018-07-02T01:05:22.873Z,8.04672
2018-07-02T01:05:35.553Z,8.04672
2018-07-02T01:05:48.323Z,8.04672
2018-07-02T01:06:03.715Z,8.04672
2018-07-02T01:06:18.090Z,1.609344
2018-07-02T01:06:30.892Z,1.609344
2018-07-02T01:06:43.657Z,3.218688
2018-07-02T01:06:56.392Z,3.218688
2018-07-02T01:07:09.335Z,1.609344
2018-07-02T01:07:22.803Z,1.609344
2018-07-02T01:07:38.983Z,1.609344
2018-07-02T01:07:51.818Z,1.609344
2018-07-02T01:08:04.520Z,1.609344
2018-07-02T01:08:17.328Z,1.609344
2018-07-02T01:08:30.132Z,1.609344
2018-07-02T01:08:42.800Z,1.609344
2018-07-02T01:08:58.900Z,1.609344
2018-07-02T01:09:12.231Z,1.609344
2018-07-02T01:09:24.960Z,1.609344
2018-07-02T01:09:37.752Z,1.609344
2018-07-02T01:09:50.534Z,1.609344
2018-07-02T01:10:03.242Z,1.609344
2018-07-02T01:10:19.343Z,1.609344
2018-07-02T01:10:33.763Z,1.609344
2018-07-02T01:10:46.511Z,1.609344
2018-07-02T01:10:59.306Z,1.609344
2018-07-02T01:11:12.004Z,3.218688
2018-07-02T01:11:24.678Z,3.218688
2018-07-02T01:11:38.415Z,3.218688
2018-07-02T01:11:55.056Z,3.218688
2018-07-02T01:12:07.944Z,1.609344
2018-07-02T01:12:20.665Z,1.609344
2018-07-02T01:12:33.370Z,1.609344
2018-07-02T01:12:46.109Z,1.609344
2018-07-02T01:12:58.835Z,1.609344
2018-07-02T01:13:15.435Z,0
2018-07-02T01:13:29.126Z,0
2018-07-02T01:13:41.847Z,1.609344
2018-07-02T01:13:54.652Z,1.609344
2018-07-02T01:14:07.425Z,0
2018-07-02T01:14:20.162Z,1.609344
2018-07-02T01:14:33.928Z,1.609344
2018-07-02T01:14:50.796Z,4.828032
2018-07-02T01:15:03.713Z,4.828032
2018-07-02T01:15:16.440Z,1.609344
2018-07-02T01:15:29.178Z,1.609344
2018-07-02T01:15:41.985Z,1.609344
2018-07-02T01:15:54.670Z,1.609344
2018-07-02T01:16:10.834Z,1.609344
2018-07-02T01:16:25.327Z,3.218688
2018-07-02T01:16:38.145Z,3.218688
2018-07-02T01:16:50.959Z,4.828032
2018-07-02T01:17:03.679Z,8.04672
2018-07-02T01:17:16.427Z,6.437376
2018-07-02T01:17:30.914Z,6.437376
2018-07-02T01:17:47.260Z,8.04672
2018-07-02T01:18:00.030Z,8.04672
2018-07-02T01:18:12.821Z,6.437376
2018-07-02T01:18:25.569Z,6.437376
2018-07-02T01:18:38.285Z,6.437376
2018-07-02T01:18:50.953Z,6.437376
2018-07-02T01:19:07.821Z,1.609344
2018-07-02T01:19:22.028Z,1.609344
2018-07-02T01:19:34.755Z,1.609344
2018-07-02T01:19:47.483Z,1.609344
2018-07-02T01:20:00.197Z,1.609344
2018-07-02T01:20:12.967Z,1.609344
2018-07-02T01:20:26.644Z,1.609344
2018-07-02T01:20:43.816Z,1.609344
2018-07-02T01:20:56.546Z,1.609344
2018-07-02T01:21:09.264Z,0
2018-07-02T01:21:22.041Z,0
2018-07-02T01:21:34.793Z,1.609344
2018-07-02T01:21:47.551Z,1.609344
2018-07-02T01:22:04.527Z,0
2018-07-02T01:22:18.478Z,0
2018-07-02T01:22:31.232Z,0
2018-07-02T01:22:44.008Z,0
2018-07-02T01:22:56.692Z,0
2018-07-02T01:23:09.549Z,0
2018-07-02T01:23:24.255Z,0
2018-07-02T01:23:39.545Z,1.609344
2018-07-02T01:23:52.394Z,3.218688
2018-07-02T01:24:05.134Z,3.218688
2018-07-02T01:24:17.890Z,6.437376
2018-07-02T01:24:30.650Z,6.437376
2018-07-02T01:24:43.389Z,6.437376
2018-07-02T01:24:59.658Z,6.437376
2018-07-02T01:25:13.476Z,6.437376
2018-07-02T01:25:26.226Z,6.437376
2018-07-02T01:25:39.013Z,6.437376
2018-07-02T01:25:51.791Z,6.437376
2018-07-02T01:26:04.479Z,3.218688
2018-07-02T01:26:17.613Z,3.218688
2018-07-02T01:26:35.058Z,3.218688
2018-07-02T01:26:47.787Z,3.218688
2018-07-02T01:27:00.531Z,3.218688
2018-07-02T01:27:13.298Z,3.218688
2018-07-02T01:27:26.068Z,3.218688
2018-07-02T01:27:39.334Z,3.218688
2018-07-02T01:27:56.019Z,3.218688
2018-07-02T01:28:09.448Z,1.609344
2018-07-02T01:28:22.147Z,1.609344
2018-07-02T01:28:34.967Z,1.609344
2018-07-02T01:28:47.703Z,1.609344
2018-07-02T01:29:00.459Z,1.609344
2018-07-02T01:29:13.086Z,1.609344
2018-07-02T01:29:31.530Z,1.609344
2018-07-02T01:29:44.322Z,1.609344
2018-07-02T01:29:57.021Z,1.609344
2018-07-02T01:30:09.747Z,0
2018-07-02T01:30:22.507Z,1.609344
2018-07-02T01:30:35.220Z,1.609344
2018-07-02T01:30:47.859Z,1.609344
2018-07-02T01:31:06.062Z,0
2018-07-02T01:31:19.923Z,1.609344
2018-07-02T01:31:32.704Z,1.609344
2018-07-02T01:31:45.492Z,1.609344
2018-07-02T01:31:58.168Z,1.609344
2018-07-02T01:32:10.944Z,1.609344
2018-07-02T01:32:24.910Z,1.609344
2018-07-02T01:32:42.678Z,3.218688
2018-07-02T01:32:55.847Z,3.218688
2018-07-02T01:33:08.598Z,1.609344
2018-07-02T01:33:21.406Z,1.609344
2018-07-02T01:33:34.156Z,1.609344
2018-07-02T01:33:46.901Z,1.609344
2018-07-02T01:33:59.683Z,3.218688
2018-07-02T01:34:12.407Z,6.437376
2018-07-02T01:34:29.506Z,6.437376
2018-07-02T01:34:43.711Z,6.437376
2018-07-02T01:34:57.221Z,6.437376
2018-07-02T01:35:09.983Z,3.218688
2018-07-02T01:35:22.792Z,3.218688
2018-07-02T01:35:35.552Z,3.218688
2018-07-02T01:35:48.394Z,3.218688
2018-07-02T01:36:01.119Z,3.218688
2018-07-02T01:36:13.929Z,1.609344
2018-07-02T01:36:28.830Z,1.609344
2018-07-02T01:36:44.798Z,1.609344
2018-07-02T01:36:57.528Z,1.609344
2018-07-02T01:37:10.749Z,1.609344
2018-07-02T01:37:23.796Z,3.218688
2018-07-02T01:37:39.279Z,3.218688
2018-07-02T01:37:52.024Z,3.218688
2018-07-02T01:38:04.764Z,1.609344
2018-07-02T01:38:17.562Z,3.218688
2018-07-02T01:38:30.282Z,3.218688
2018-07-02T01:38:42.961Z,3.218688
2018-07-02T01:38:55.610Z,4.828032
2018-07-02T01:39:08.519Z,4.828032
2018-07-02T01:39:27.188Z,4.828032
2018-07-02T01:39:48.281Z,4.828032
2018-07-02T01:40:06.129Z,3.218688
2018-07-02T01:40:18.898Z,4.828032
2018-07-02T01:40:31.602Z,6.437376
2018-07-02T01:40:44.296Z,6.437376
2018-07-02T01:40:57.256Z,6.437376
2018-07-02T01:41:15.203Z,4.828032
2018-07-02T01:41:29.050Z,4.828032
2018-07-02T01:41:41.805Z,4.828032
2018-07-02T01:41:54.603Z,4.828032
2018-07-02T01:42:07.366Z,1.609344
2018-07-02T01:42:20.040Z,1.609344
2018-07-02T01:42:34.247Z,1.609344
2018-07-02T01:42:50.440Z,1.609344
2018-07-02T01:43:03.160Z,1.609344
2018-07-02T01:43:15.906Z,1.609344
2018-07-02T01:43:28.702Z,1.609344
2018-07-02T01:43:41.427Z,3.218688
2018-07-02T01:43:54.052Z,3.218688
2018-07-02T01:44:10.034Z,3.218688
2018-07-02T01:44:24.286Z,3.218688
2018-07-02T01:44:37.077Z,3.218688
2018-07-02T01:44:49.885Z,3.218688
2018-07-02T01:45:02.706Z,3.218688
2018-07-02T01:45:15.447Z,3.218688
2018-07-02T01:45:32.107Z,3.218688
2018-07-02T01:45:46.057Z,3.218688
2018-07-02T01:45:58.790Z,3.218688
2018-07-02T01:46:11.651Z,1.609344
2018-07-02T01:46:24.367Z,1.609344
2018-07-02T01:46:37.249Z,1.609344
2018-07-02T01:46:52.059Z,1.609344
2018-07-02T01:47:07.035Z,1.609344
2018-07-02T01:47:19.734Z,1.609344
2018-07-02T01:47:32.491Z,1.609344
2018-07-02T01:47:45.293Z,1.609344
2018-07-02T01:47:57.983Z,1.609344
2018-07-02T01:48:10.682Z,1.609344
2018-07-02T01:48:26.661Z,1.609344
2018-07-02T01:48:41.231Z,3.218688
2018-07-02T01:48:53.944Z,3.218688
2018-07-02T01:49:06.800Z,1.609344
2018-07-02T01:49:19.549Z,1.609344
2018-07-02T01:49:32.370Z,3.218688
2018-07-02T01:49:44.991Z,3.218688
2018-07-02T01:50:03.285Z,3.218688
2018-07-02T01:50:16.084Z,3.218688
2018-07-02T01:50:28.794Z,3.218688
2018-07-02T01:50:41.466Z,4.828032
2018-07-02T01:50:54.250Z,4.828032
2018-07-02T01:51:07.069Z,3.218688
2018-07-02T01:51:23.157Z,3.218688
2018-07-02T01:51:37.276Z,3.218688
2018-07-02T01:51:49.985Z,3.218688
2018-07-02T01:52:02.740Z,3.218688
2018-07-02T01:52:15.452Z,1.609344
2018-07-02T01:52:28.182Z,1.609344
2018-07-02T01:52:41.203Z,1.609344
2018-07-02T01:52:58.649Z,1.609344
2018-07-02T01:53:11.366Z,1.609344
2018-07-02T01:53:24.063Z,1.609344
2018-07-02T01:53:36.764Z,1.609344
2018-07-02T01:53:49.512Z,1.609344
2018-07-02T01:54:02.173Z,1.609344
2018-07-02T01:54:17.370Z,1.609344
2018-07-02T01:54:31.965Z,1.609344
2018-07-02T01:54:44.689Z,1.609344
2018-07-02T01:54:57.459Z,1.609344
2018-07-02T01:55:10.165Z,1.609344
2018-07-02T01:55:22.870Z,1.609344
2018-07-02T01:55:36.059Z,1.609344
2018-07-02T01:55:52.850Z,1.609344
2018-07-02T01:56:05.533Z,0
2018-07-02T01:56:18.261Z,0
2018-07-02T01:56:30.996Z,0
2018-07-02T01:56:43.704Z,0
2018-07-02T01:56:57.833Z,0
2018-07-02T01:57:13.436Z,1.609344
2018-07-02T01:57:26.003Z,3.218688
2018-07-02T01:57:38.617Z,3.218688
2018-07-02T01:57:51.297Z,3.218688
2018-07-02T01:58:03.920Z,3.218688
2018-07-02T01:58:18.444Z,1.609344
2018-07-02T01:58:34.231Z,1.609344
2018-07-02T01:58:46.842Z,3.218688
2018-07-02T01:58:59.419Z,3.218688
2018-07-02T01:59:11.990Z,4.828032
2018-07-02T01:59:24.657Z,4.828032
2018-07-02T01:59:39.407Z,4.828032
2018-07-02T01:59:54.738Z,4.828032
2018-07-02T02:00:07.376Z,3.218688
2018-07-02T02:00:19.984Z,6.437376
2018-07-02T02:00:32.628Z,6.437376
2018-07-02T02:00:45.241Z,6.437376
2018-07-02T02:01:00.374Z,6.437376
2018-07-02T02:01:15.610Z,1.609344
2018-07-02T02:01:28.326Z,1.609344
2018-07-02T02:01:40.945Z,1.609344
2018-07-02T02:01:53.546Z,1.609344
2018-07-02T02:02:06.203Z,1.609344
2018-07-02T02:02:21.358Z,1.609344
2018-07-02T02:02:35.657Z,4.828032
2018-07-02T02:02:48.272Z,4.828032
2018-07-02T02:03:00.899Z,4.828032
2018-07-02T02:03:13.539Z,1.609344
2018-07-02T02:03:26.160Z,1.609344
2018-07-02T02:03:42.342Z,3.218688
2018-07-02T02:03:56.137Z,3.218688
2018-07-02T02:04:08.757Z,3.218688
2018-07-02T02:04:21.380Z,3.218688
2018-07-02T02:04:34.022Z,3.218688
2018-07-02T02:04:46.643Z,3.218688
2018-07-02T02:05:03.614Z,3.218688
2018-07-02T02:05:16.864Z,1.609344
2018-07-02T02:05:29.495Z,1.609344
2018-07-02T02:05:42.120Z,1.609344
2018-07-02T02:05:54.751Z,3.218688
2018-07-02T02:06:07.410Z,1.609344
2018-07-02T02:06:24.817Z,3.218688
2018-07-02T02:06:37.430Z,3.218688
2018-07-02T02:06:50.067Z,3.218688
2018-07-02T02:07:02.879Z,3.218688
2018-07-02T02:07:15.509Z,3.218688
2018-07-02T02:07:28.103Z,3.218688
2018-07-02T02:07:45.682Z,3.218688
2018-07-02T02:07:58.260Z,3.218688
2018-07-02T02:08:11.016Z,1.609344
2018-07-02T02:08:23.828Z,1.609344
2018-07-02T02:08:36.434Z,1.609344
2018-07-02T02:08:49.529Z,1.609344
2018-07-02T02:09:06.318Z,0
2018-07-02T02:09:18.996Z,1.609344
2018-07-02T02:09:31.611Z,1.609344
2018-07-02T02:09:44.262Z,1.609344
2018-07-02T02:09:56.855Z,1.609344
2018-07-02T02:10:10.922Z,1.609344
2018-07-02T02:10:27.161Z,1.609344
2018-07-02T02:10:39.823Z,1.609344
2018-07-02T02:10:52.424Z,1.609344
2018-07-02T02:11:05.050Z,1.609344
2018-07-02T02:11:17.749Z,1.609344
2018-07-02T02:11:32.530Z,1.609344
2018-07-02T02:11:47.416Z,1.609344
2018-07-02T02:12:00.027Z,1.609344
2018-07-02T02:12:12.642Z,0
2018-07-02T02:12:25.299Z,0
2018-07-02T02:12:37.927Z,0
2018-07-02T02:12:52.972Z,1.609344
2018-07-02T02:13:07.349Z,3.218688
2018-07-02T02:13:19.937Z,3.218688
2018-07-02T02:13:32.650Z,3.218688
2018-07-02T02:13:45.276Z,3.218688
2018-07-02T02:13:57.847Z,3.218688
2018-07-02T02:14:13.745Z,1.609344
2018-07-02T02:14:28.297Z,1.609344
2018-07-02T02:14:40.891Z,1.609344
2018-07-02T02:14:53.491Z,1.609344
2018-07-02T02:15:06.115Z,1.609344
2018-07-02T02:15:18.698Z,3.218688
2018-07-02T02:15:34.610Z,3.218688
2018-07-02T02:15:49.215Z,3.218688
2018-07-02T02:16:01.872Z,3.218688
2018-07-02T02:16:14.481Z,1.609344
2018-07-02T02:16:27.136Z,1.609344
2018-07-02T02:16:39.783Z,3.218688
2018-07-02T02:16:55.404Z,3.218688
2018-07-02T02:17:09.354Z,3.218688
2018-07-02T02:17:21.975Z,3.218688
2018-07-02T02:17:34.589Z,3.218688
2018-07-02T02:17:47.264Z,3.218688
2018-07-02T02:17:59.878Z,3.218688
2018-07-02T02:18:15.921Z,3.218688
2018-07-02T02:18:30.271Z,3.218688
2018-07-02T02:18:42.937Z,3.218688
2018-07-02T02:18:55.544Z,3.218688
2018-07-02T02:19:08.138Z,1.609344
2018-07-02T02:19:20.743Z,1.609344
2018-07-02T02:19:37.387Z,3.218688
2018-07-02T02:19:51.129Z,3.218688
2018-07-02T02:20:03.771Z,3.218688
2018-07-02T02:20:16.370Z,1.609344
2018-07-02T02:20:28.969Z,3.218688
2018-07-02T02:20:41.577Z,3.218688
2018-07-02T02:20:58.779Z,3.218688
2018-07-02T02:21:11.383Z,1.609344
2018-07-02T02:21:24.022Z,1.609344
2018-07-02T02:21:36.632Z,1.609344
2018-07-02T02:21:49.263Z,3.218688
2018-07-02T02:22:01.866Z,3.218688
2018-07-02T02:22:19.234Z,1.609344
2018-07-02T02:22:31.907Z,1.609344
2018-07-02T02:22:44.728Z,3.218688
2018-07-02T02:22:58.092Z,3.218688
2018-07-02T02:23:11.073Z,1.609344
2018-07-02T02:23:25.496Z,1.609344
2018-07-02T02:23:40.586Z,3.218688
2018-07-02T02:23:53.233Z,3.218688
2018-07-02T02:24:05.866Z,1.609344
2018-07-02T02:24:18.477Z,1.609344
2018-07-02T02:24:31.113Z,1.609344
2018-07-02T02:24:46.386Z,3.218688
2018-07-02T02:25:00.952Z,3.218688
2018-07-02T02:25:13.715Z,1.609344
2018-07-02T02:25:26.311Z,1.609344
2018-07-02T02:25:38.961Z,1.609344
2018-07-02T02:25:51.553Z,1.609344
2018-07-02T02:26:08.198Z,1.609344
2018-07-02T02:26:22.170Z,1.609344
2018-07-02T02:26:34.799Z,1.609344
2018-07-02T02:26:47.393Z,1.609344
2018-07-02T02:27:00.017Z,3.218688
2018-07-02T02:27:12.675Z,4.828032
2018-07-02T02:27:29.861Z,4.828032
2018-07-02T02:27:42.925Z,4.828032
2018-07-02T02:27:55.540Z,4.828032
2018-07-02T02:28:08.160Z,1.609344
2018-07-02T02:28:20.827Z,4.828032
2018-07-02T02:28:33.488Z,6.437376
2018-07-02T02:28:50.728Z,6.437376
2018-07-02T02:29:03.333Z,6.437376
2018-07-02T02:29:15.934Z,6.437376
2018-07-02T02:29:28.622Z,6.437376
2018-07-02T02:29:41.207Z,6.437376
2018-07-02T02:29:54.173Z,6.437376
2018-07-02T02:30:11.569Z,1.609344
2018-07-02T02:30:24.286Z,1.609344
2018-07-02T02:30:36.994Z,3.218688
2018-07-02T02:30:49.626Z,3.218688
2018-07-02T02:31:02.313Z,3.218688
2018-07-02T02:31:16.241Z,3.218688
2018-07-02T02:31:32.717Z,3.218688
2018-07-02T02:31:45.389Z,8.04672
2018-07-02T02:31:58.067Z,11.265408
2018-07-02T02:32:10.666Z,12.874752
2018-07-02T02:32:23.385Z,12.874752
2018-07-02T02:32:38.903Z,12.874752
2018-07-02T02:32:53.780Z,12.874752
2018-07-02T02:33:06.497Z,3.218688
2018-07-02T02:33:19.161Z,4.828032
2018-07-02T02:33:31.823Z,4.828032
2018-07-02T02:33:44.489Z,4.828032
2018-07-02T02:33:59.756Z,6.437376
2018-07-02T02:34:14.229Z,8.04672
2018-07-02T02:34:26.857Z,8.04672
2018-07-02T02:34:39.458Z,9.656064
2018-07-02T02:34:52.147Z,9.656064
2018-07-02T02:35:04.759Z,4.828032
2018-07-02T02:35:20.649Z,11.265408
2018-07-02T02:35:34.361Z,12.874752
2018-07-02T02:35:46.961Z,12.874752
2018-07-02T02:35:59.622Z,12.874752
2018-07-02T02:36:12.343Z,9.656064
2018-07-02T02:36:25.048Z,9.656064
2018-07-02T02:36:41.188Z,9.656064
2018-07-02T02:36:54.583Z,9.656064
2018-07-02T02:37:07.200Z,4.828032
2018-07-02T02:37:19.863Z,8.04672
2018-07-02T02:37:32.613Z,9.656064
2018-07-02T02:37:45.285Z,9.656064
2018-07-02T02:38:02.092Z,9.656064
2018-07-02T02:38:15.356Z,3.218688
2018-07-02T02:38:29.070Z,3.218688
2018-07-02T02:38:41.766Z,3.218688
2018-07-02T02:38:54.412Z,3.218688
2018-07-02T02:39:07.065Z,3.218688
2018-07-02T02:39:24.725Z,3.218688
2018-07-02T02:39:37.404Z,3.218688
2018-07-02T02:39:50.110Z,3.218688